Time;durP1;ratioP1;P1;durP2;ratioP2;P2;SDS_P1;SDS_P2;PMS_P1;PMS_P2;Temp;Humidity;BMP_temperature;BMP_pressure;BME280_temperature;BME280_humidity;BME280_pressure;Samples;Min_cycle;Max_cycle;Signal;HPM_P1;HPM_P2
2022/09/21 00:00:33;;;;;;;1.17;0.93;;;10.30;99.90;;;;;;6256718;22;20007;-76
2022/09/21 00:02:59;;;;;;;0.65;0.65;;;10.30;99.90;;;;;;6263518;22;20014;-76
2022/09/21 00:05:25;;;;;;;0.70;0.60;;;10.20;99.90;;;;;;6259708;22;20251;-76
2022/09/21 00:07:50;;;;;;;1.38;1.08;;;10.20;99.90;;;;;;6260795;22;20007;-77
2022/09/21 00:10:18;;;;;;;1.13;0.73;;;10.20;99.90;;;;;;6258324;22;20482;-77
2022/09/21 00:12:47;;;;;;;0.82;0.80;;;10.20;99.90;;;;;;6257263;22;20004;-77
2022/09/21 00:15:14;;;;;;;0.73;0.60;;;10.20;99.90;;;;;;6260944;22;20498;-77
2022/09/21 00:17:40;;;;;;;0.80;0.80;;;10.10;99.90;;;;;;6263357;22;20019;-78
2022/09/21 00:20:06;;;;;;;2.47;0.82;;;10.10;99.90;;;;;;6261977;22;20094;-76
2022/09/21 00:22:33;;;;;;;1.52;0.70;;;10.00;99.90;;;;;;6250547;22;20763;-75
2022/09/21 00:25:00;;;;;;;1.25;0.80;;;10.00;99.90;;;;;;6261512;22;20447;-76
2022/09/21 00:27:28;;;;;;;0.70;0.70;;;10.00;99.90;;;;;;6259610;22;20058;-75
2022/09/21 00:29:55;;;;;;;0.88;0.82;;;10.00;99.90;;;;;;6256986;22;20004;-75
2022/09/21 00:32:21;;;;;;;2.63;0.90;;;9.90;99.90;;;;;;6259100;22;20010;-75
2022/09/21 00:34:47;;;;;;;0.80;0.70;;;9.80;99.90;;;;;;6262714;22;20493;-74
2022/09/21 00:37:12;;;;;;;2.03;0.80;;;9.70;99.90;;;;;;6261767;22;20007;-73
2022/09/21 00:39:38;;;;;;;1.65;0.93;;;9.60;99.90;;;;;;6261140;22;20004;-73
2022/09/21 00:42:20;;;;;;;2.97;0.95;;;9.60;99.90;;;;;;6260410;22;20077;-74
2022/09/21 00:44:46;;;;;;;;;;;9.60;99.90;;;;;;6260607;22;20007;-74
2022/09/21 00:47:20;;;;;;;1.52;0.70;;;9.50;99.90;;;;;;6259465;22;19994;-75
2022/09/21 00:49:50;;;;;;;7.05;1.27;;;9.50;99.90;;;;;;6259893;22;20000;-73
2022/09/21 00:52:18;;;;;;;2.55;1.05;;;9.40;99.90;;;;;;6257719;22;20089;-73
2022/09/21 00:54:56;;;;;;;2.50;1.00;;;9.40;99.90;;;;;;6261205;22;20007;-76
2022/09/21 00:57:25;;;;;;;1.15;1.02;;;9.40;99.90;;;;;;6258484;22;20444;-74
2022/09/21 00:59:54;;;;;;;1.10;1.00;;;9.30;99.90;;;;;;6259002;22;20502;-75
2022/09/21 01:02:20;;;;;;;3.55;0.88;;;9.40;99.90;;;;;;6260260;22;20066;-75
2022/09/21 01:04:47;;;;;;;1.65;0.90;;;9.40;99.90;;;;;;6261742;22;20094;-75
2022/09/21 01:07:17;;;;;;;2.03;0.95;;;9.30;99.90;;;;;;6263348;22;20046;-75
2022/09/21 01:09:48;;;;;;;1.00;1.00;;;9.20;99.90;;;;;;6261483;22;20050;-75
2022/09/21 01:12:48;;;;;;;0.88;0.85;;;9.10;99.90;;;;;;6262048;22;20369;-76
2022/09/21 01:15:25;;;;;;;2.08;0.70;;;9.10;99.90;;;;;;6259488;22;20345;-77
2022/09/21 01:18:07;;;;;;;0.85;0.85;;;9.10;99.90;;;;;;6262969;22;20016;-75
2022/09/21 01:20:38;;;;;;;1.70;1.00;;;9.00;99.90;;;;;;6261586;22;20015;-75
2022/09/21 01:23:13;;;;;;;0.80;0.80;;;9.00;99.90;;;;;;6262506;22;20344;-75
2022/09/21 01:26:05;;;;;;;0.65;0.65;;;9.00;99.90;;;;;;6262392;22;19996;-76
2022/09/21 01:29:00;;;;;;;1.00;0.90;;;9.00;99.90;;;;;;6260983;22;20007;-75
2022/09/21 01:31:38;;;;;;;1.10;0.90;;;9.00;99.90;;;;;;6259574;22;20749;-75
2022/09/21 01:34:14;;;;;;;1.00;0.88;;;8.90;99.90;;;;;;6263184;22;20054;-75
2022/09/21 01:36:41;;;;;;;0.73;0.70;;;8.90;99.90;;;;;;6262717;22;20080;-76
2022/09/21 01:39:12;;;;;;;4.88;0.88;;;8.90;99.90;;;;;;6261365;22;20039;-75
2022/09/21 01:41:41;;;;;;;0.85;0.70;;;8.80;99.90;;;;;;6259802;22;19996;-75
2022/09/21 01:44:14;;;;;;;0.70;0.70;;;8.70;99.90;;;;;;6261609;22;20492;-76
2022/09/21 01:46:41;;;;;;;1.95;0.80;;;8.70;99.90;;;;;;6260961;22;20085;-75
2022/09/21 01:49:22;;;;;;;0.70;0.70;;;8.70;99.90;;;;;;6260545;22;20012;-78
2022/09/21 01:51:53;;;;;;;0.90;0.65;;;8.60;99.90;;;;;;6257496;22;20010;-79
2022/09/21 01:54:29;;;;;;;1.70;0.90;;;8.60;99.90;;;;;;6257523;22;20098;-78
2022/09/21 01:57:22;;;;;;;0.85;0.68;;;8.70;99.90;;;;;;6259432;22;20031;-79
2022/09/21 01:59:55;;;;;;;1.05;0.82;;;8.60;99.90;;;;;;6261150;22;20000;-77
2022/09/21 02:02:46;;;;;;;1.08;0.90;;;8.50;99.90;;;;;;6257729;22;20007;-86
2022/09/21 02:05:12;;;;;;;1.75;0.90;;;8.60;99.90;;;;;;6262523;22;20054;-78
2022/09/21 02:07:38;;;;;;;0.65;0.65;;;8.60;99.90;;;;;;6259285;22;20365;-79
2022/09/21 02:10:07;;;;;;;1.67;0.80;;;8.40;99.90;;;;;;6262785;22;20118;-79
2022/09/21 02:12:33;;;;;;;1.50;0.55;;;8.30;99.90;;;;;;6259846;22;20027;-78
2022/09/21 02:15:00;;;;;;;3.85;1.58;;;8.20;99.90;;;;;;6262913;22;20506;-78
2022/09/21 02:17:39;;;;;;;2.85;0.95;;;8.20;99.90;;;;;;6259380;22;20000;-78
2022/09/21 02:20:21;;;;;;;3.22;0.95;;;8.20;99.90;;;;;;6264050;22;20008;-78
2022/09/21 02:23:11;;;;;;;0.50;0.50;;;8.10;99.90;;;;;;6259392;22;20011;-78
2022/09/21 02:25:56;;;;;;;1.08;0.70;;;8.00;99.90;;;;;;6263115;22;20015;-78
2022/09/21 02:28:47;;;;;;;0.70;0.70;;;8.00;99.90;;;;;;6260840;22;20035;-78
2022/09/21 02:31:24;;;;;;;1.10;0.90;;;8.00;99.90;;;;;;6259961;22;20016;-78
2022/09/21 02:34:01;;;;;;;1.00;0.85;;;8.00;99.90;;;;;;6261800;22;20008;-78
2022/09/21 02:36:48;;;;;;;2.15;1.15;;;8.00;99.90;;;;;;6259871;22;20000;-78
2022/09/21 02:39:22;;;;;;;1.85;0.95;;;8.00;99.90;;;;;;6264726;22;20016;-78
2022/09/21 02:41:53;;;;;;;1.13;1.00;;;8.10;99.90;;;;;;6262719;22;20544;-79
2022/09/21 02:44:33;;;;;;;0.73;0.70;;;8.10;99.90;;;;;;6260779;22;20015;-78
2022/09/21 02:47:06;;;;;;;1.42;0.88;;;8.10;99.90;;;;;;6261039;22;20233;-78
2022/09/21 02:49:37;;;;;;;2.05;0.70;;;8.10;99.90;;;;;;6258642;22;20000;-78
2022/09/21 02:52:09;;;;;;;1.23;0.90;;;8.10;99.90;;;;;;6261816;22;20330;-79
2022/09/21 02:54:38;;;;;;;1.05;0.80;;;8.10;99.90;;;;;;6258943;22;20007;-78
2022/09/21 02:57:05;;;;;;;1.48;0.82;;;8.10;99.90;;;;;;6260750;22;20011;-78
2022/09/21 02:59:31;;;;;;;0.80;0.80;;;8.10;99.90;;;;;;6265390;22;20011;-79
2022/09/21 03:01:57;;;;;;;1.02;0.63;;;8.00;99.90;;;;;;6261232;22;20449;-78
2022/09/21 03:04:23;;;;;;;4.93;0.90;;;8.00;99.90;;;;;;6261632;22;20103;-78
2022/09/21 03:06:49;;;;;;;0.95;0.90;;;7.90;99.90;;;;;;6261979;22;20004;-78
2022/09/21 03:09:16;;;;;;;0.77;0.77;;;7.90;99.90;;;;;;6263164;22;20102;-78
2022/09/21 03:11:42;;;;;;;1.00;0.88;;;7.90;99.90;;;;;;6261077;22;20063;-79
2022/09/21 03:14:07;;;;;;;1.10;1.00;;;7.90;99.90;;;;;;6263717;22;20000;-78
2022/09/21 03:16:37;;;;;;;1.27;1.17;;;7.90;99.90;;;;;;6262288;22;20467;-78
2022/09/21 03:19:03;;;;;;;1.15;1.08;;;7.90;99.90;;;;;;6264558;22;20396;-78
2022/09/21 03:21:29;;;;;;;2.58;1.67;;;7.90;99.90;;;;;;6262912;22;20008;-78
2022/09/21 03:23:55;;;;;;;0.82;0.82;;;8.00;99.90;;;;;;6261975;22;20008;-78
2022/09/21 03:26:21;;;;;;;2.88;0.70;;;7.90;99.90;;;;;;6264188;22;20004;-78
2022/09/21 03:28:49;;;;;;;1.00;0.73;;;7.80;99.90;;;;;;6265349;22;20299;-79
2022/09/21 03:31:16;;;;;;;5.05;0.85;;;7.80;99.90;;;;;;6262028;22;20000;-79
2022/09/21 03:33:42;;;;;;;0.90;0.90;;;7.80;99.90;;;;;;6260795;22;20019;-79
2022/09/21 03:36:07;;;;;;;1.02;0.73;;;7.80;99.90;;;;;;6258361;22;20007;-78
2022/09/21 03:38:33;;;;;;;1.25;0.85;;;7.90;99.90;;;;;;6262170;22;20015;-78
2022/09/21 03:40:59;;;;;;;1.40;1.00;;;7.90;99.90;;;;;;6258101;22;20101;-79
2022/09/21 03:43:25;;;;;;;1.77;1.02;;;7.90;99.90;;;;;;6256594;22;20011;-78
2022/09/21 03:45:51;;;;;;;1.30;1.20;;;8.00;99.90;;;;;;6259070;22;20011;-78
2022/09/21 03:48:17;;;;;;;1.77;1.58;;;8.00;99.90;;;;;;6261537;22;20058;-79
2022/09/21 03:50:42;;;;;;;3.05;1.50;;;8.10;99.90;;;;;;6259503;22;19996;-78
2022/09/21 03:53:09;;;;;;;2.20;1.65;;;8.10;99.90;;;;;;6261944;22;20066;-78
2022/09/21 03:55:35;;;;;;;1.40;1.30;;;8.20;99.90;;;;;;6263009;22;20810;-78
2022/09/21 03:58:01;;;;;;;3.42;1.52;;;8.20;99.90;;;;;;6259778;22;20502;-79
2022/09/21 04:00:27;;;;;;;3.42;3.15;;;8.20;99.90;;;;;;6264490;22;20071;-78
2022/09/21 04:02:53;;;;;;;3.70;3.30;;;8.10;99.90;;;;;;6259719;22;20707;-78
2022/09/21 04:05:19;;;;;;;5.88;5.38;;;8.10;99.90;;;;;;6260221;22;20004;-78
2022/09/21 04:07:45;;;;;;;5.32;4.85;;;8.10;99.90;;;;;;6256924;22;20150;-77
2022/09/21 04:10:14;;;;;;;4.30;3.72;;;8.10;99.90;;;;;;6263368;22;20085;-78
2022/09/21 04:12:43;;;;;;;4.97;3.78;;;8.10;99.90;;;;;;6261708;22;20433;-77
2022/09/21 04:15:10;;;;;;;3.45;2.53;;;8.20;99.90;;;;;;6264734;22;20022;-77
2022/09/21 04:17:36;;;;;;;2.20;2.00;;;8.10;99.90;;;;;;6262479;22;20008;-77
2022/09/21 04:20:02;;;;;;;5.70;2.10;;;8.20;99.90;;;;;;6264413;22;20004;-76
2022/09/21 04:22:28;;;;;;;4.53;3.53;;;8.20;99.90;;;;;;6257761;22;20462;-78
2022/09/21 04:24:53;;;;;;;7.63;3.60;;;8.20;99.90;;;;;;6260399;22;20003;-77
2022/09/21 04:27:19;;;;;;;6.60;4.47;;;8.20;99.90;;;;;;6262984;22;20004;-78
2022/09/21 04:29:45;;;;;;;6.30;2.58;;;8.20;99.90;;;;;;6264813;22;20871;-78
2022/09/21 04:32:10;;;;;;;2.78;1.52;;;8.20;99.90;;;;;;6263909;22;20006;-77
2022/09/21 04:34:38;;;;;;;6.30;2.90;;;8.10;99.90;;;;;;6260532;22;20030;-78
2022/09/21 04:37:08;;;;;;;4.75;3.53;;;8.00;99.90;;;;;;6263132;22;20003;-77
2022/09/21 04:39:34;;;;;;;3.50;3.20;;;8.00;99.90;;;;;;6264034;22;20642;-78
2022/09/21 04:42:00;;;;;;;5.32;3.72;;;8.00;99.90;;;;;;6260695;22;20004;-78
2022/09/21 04:44:26;;;;;;;2.13;1.92;;;8.00;99.90;;;;;;6262094;22;20003;-78
2022/09/21 04:46:52;;;;;;;2.95;2.40;;;8.00;99.90;;;;;;6265207;22;20436;-78
2022/09/21 04:49:17;;;;;;;3.78;2.75;;;8.00;99.90;;;;;;6262710;22;20003;-77
2022/09/21 04:51:43;;;;;;;3.20;2.38;;;8.00;99.90;;;;;;6262667;22;20087;-77
2022/09/21 04:54:09;;;;;;;3.63;2.25;;;8.00;99.90;;;;;;6264959;22;19995;-76
2022/09/21 04:56:35;;;;;;;2.45;1.83;;;8.10;99.90;;;;;;6263952;22;20813;-77
2022/09/21 04:59:01;;;;;;;2.28;1.67;;;8.00;99.90;;;;;;6263411;22;20012;-77
2022/09/21 05:01:26;;;;;;;2.80;1.55;;;8.00;99.90;;;;;;6264480;22;20000;-75
2022/09/21 05:03:52;;;;;;;2.17;1.63;;;8.00;99.90;;;;;;6260532;22;20004;-75
2022/09/21 05:06:18;;;;;;;2.00;1.60;;;7.90;99.90;;;;;;6258056;22;20910;-78
2022/09/21 05:11:28;;;;;;;2.80;2.03;;;7.80;99.90;;;;;;6261808;22;20050;-81
2022/09/21 05:13:53;;;;;;;2.30;1.85;;;7.90;99.90;;;;;;6257117;22;20480;-76
2022/09/21 05:16:19;;;;;;;3.17;1.80;;;7.90;99.90;;;;;;6254238;22;20008;-74
2022/09/21 05:18:45;;;;;;;3.50;1.60;;;8.00;99.90;;;;;;6261394;22;20616;-74
2022/09/21 05:21:12;;;;;;;2.65;1.63;;;8.20;99.90;;;;;;6263926;22;20031;-74
2022/09/21 05:23:38;;;;;;;2.10;1.90;;;8.30;99.90;;;;;;6263445;22;20306;-75
2022/09/21 05:26:04;;;;;;;9.32;2.78;;;8.40;99.90;;;;;;6262701;22;20000;-74
2022/09/21 05:28:30;;;;;;;2.47;2.28;;;8.60;99.90;;;;;;6264091;22;20707;-75
2022/09/21 05:31:20;;;;;;;4.05;2.10;;;8.70;99.90;;;;;;6265592;22;20045;-74
2022/09/21 05:33:52;;;;;;;3.67;3.03;;;8.90;99.90;;;;;;6268577;22;20049;-73
2022/09/21 05:36:36;;;;;;;4.35;2.08;;;9.20;99.90;;;;;;6265027;22;20101;-75
2022/09/21 05:39:02;;;;;;;3.70;3.40;;;9.20;99.90;;;;;;6268574;22;20014;-76
2022/09/21 05:41:28;;;;;;;2.40;2.20;;;9.40;99.90;;;;;;6267807;22;20128;-72
2022/09/21 05:43:54;;;;;;;5.43;1.80;;;9.60;99.90;;;;;;6267271;22;20444;-71
2022/09/21 05:46:48;;;;;;;4.75;2.10;;;9.80;99.90;;;;;;6266941;22;20003;-76
2022/09/21 05:49:19;;;;;;;3.00;1.98;;;10.00;99.90;;;;;;6267828;22;20417;-76
2022/09/21 05:52:12;;;;;;;2.63;2.30;;;10.20;99.90;;;;;;6269093;22;20007;-75
2022/09/21 05:54:48;;;;;;;3.67;2.83;;;10.40;99.90;;;;;;6267831;22;20380;-75
2022/09/21 05:57:29;;;;;;;2.60;2.00;;;10.60;99.90;;;;;;6267827;22;20000;-74
2022/09/21 06:00:01;;;;;;;2.90;1.75;;;10.80;99.90;;;;;;6269841;22;19999;-73
2022/09/21 06:02:49;;;;;;;2.15;1.95;;;11.00;99.90;;;;;;6267973;22;20004;-74
2022/09/21 06:05:16;;;;;;;3.65;2.00;;;11.20;99.90;;;;;;6266068;22;20006;-74
2022/09/21 06:07:42;;;;;;;1.80;1.70;;;11.40;99.90;;;;;;6267268;22;20008;-73
2022/09/21 06:10:09;;;;;;;2.05;1.40;;;11.50;99.90;;;;;;6269614;22;20096;-74
2022/09/21 06:12:34;;;;;;;2.00;1.58;;;11.60;99.90;;;;;;6268311;22;19996;-74
2022/09/21 06:15:00;;;;;;;1.75;1.48;;;11.80;99.90;;;;;;6270652;22;20008;-74
2022/09/21 06:17:26;;;;;;;1.92;1.60;;;11.90;99.90;;;;;;6269396;22;20142;-73
2022/09/21 06:19:52;;;;;;;2.78;1.80;;;12.00;99.90;;;;;;6270084;22;20777;-74
2022/09/21 06:22:18;;;;;;;3.85;1.67;;;12.10;99.90;;;;;;6270089;22;20494;-73
2022/09/21 06:24:44;;;;;;;2.92;1.52;;;12.20;99.90;;;;;;6268929;22;20003;-73
2022/09/21 06:27:10;;;;;;;2.25;1.58;;;12.20;99.90;;;;;;6268437;22;20000;-72
2022/09/21 06:29:35;;;;;;;1.65;1.38;;;12.30;99.90;;;;;;6269868;22;20007;-73
2022/09/21 06:32:03;;;;;;;1.52;1.42;;;12.50;99.90;;;;;;6269569;22;20328;-74
2022/09/21 06:34:28;;;;;;;1.40;1.30;;;12.60;99.90;;;;;;6269176;22;20003;-74
2022/09/21 06:36:54;;;;;;;1.40;1.30;;;12.60;99.90;;;;;;6265897;22;20124;-74
2022/09/21 06:39:19;;;;;;;1.75;1.45;;;12.70;99.90;;;;;;6267919;22;20015;-73
2022/09/21 06:41:45;;;;;;;1.65;1.55;;;12.70;99.90;;;;;;6269841;22;20007;-74
2022/09/21 06:44:11;;;;;;;2.25;1.48;;;12.70;99.90;;;;;;6270950;22;20008;-73
2022/09/21 06:46:36;;;;;;;2.22;1.75;;;12.70;99.90;;;;;;6280002;22;20053;-73
2022/09/21 06:49:02;;;;;;;1.98;1.42;;;12.70;99.90;;;;;;6280148;22;20019;-73
2022/09/21 06:51:27;;;;;;;4.88;1.70;;;12.80;99.90;;;;;;6278945;22;20464;-74
2022/09/21 06:53:55;;;;;;;1.40;1.30;;;12.80;99.90;;;;;;6279129;22;20018;-74
2022/09/21 06:56:21;;;;;;;3.65;1.50;;;12.90;99.90;;;;;;6278899;22;20388;-71
2022/09/21 06:58:47;;;;;;;1.50;1.40;;;12.90;99.90;;;;;;6278714;22;20069;-74
2022/09/21 07:01:14;;;;;;;1.23;1.13;;;12.90;99.90;;;;;;6278975;22;20070;-73
2022/09/21 07:03:41;;;;;;;2.35;1.60;;;12.90;99.90;;;;;;6277308;22;20011;-74
2022/09/21 07:06:10;;;;;;;1.60;1.50;;;13.00;99.90;;;;;;6278482;22;20432;-73
2022/09/21 07:08:36;;;;;;;0.80;0.80;;;13.00;99.90;;;;;;6270477;22;20007;-73
